Terminal Aerodrome Forecast
Issued by NWS Green Bay, WI

Home | Current Version | Previous Version | Graphics & Text | Print | Product List | Glossary On
Versions: 1 2 3 4 5 6 7 8 9 10 11 12 13 14 15 16 17 18 19 20 21 22 23 24 25 26
000
FTUS43 KGRB 272300
TAFGRB
TAF
KGRB 272330Z 2800/2824 17005KT P6SM SCT250
     FM280100 16003KT P6SM SCT250
     FM280600 00000KT 5SM BR SCT200
      TEMPO 2809/2813 1SM BR
     FM281400 23004KT P6SM FEW050 SCT200=

USA.gov is the U.S. government's official web portal to all federal, state and local government web resources and services.